Flight Track Log - Related Links

Times and Time Zones

All times are in EDT time to prevent confusion due to time zone crossing. See the SKW4664 flight status page for this flight to view local times or setup timezone preferences in your user account.

Time Position Orientation Groundspeed Altitude Reporting Facility
EDT Latitude Longitude Course Direction KTS MPH feet Rate Location/Type
Thu 10:39:26 AM 44.8833 -93.2500 230° Southwest 164 189 2,300  Level Minneapolis TRACON
Thu 10:40:08 AM 44.8864 -93.2978 275° West 179 206 3,400 1,788 Climbing Minneapolis Center
Thu 10:41:10 AM 44.8728 -93.3842 257° West 229 264 5,400 2,613 Climbing Minneapolis Center
Thu 10:42:00 AM 44.6520 -93.6961 235° Southwest  Level FlightAware Approximate
Thu 10:42:12 AM 44.8369 -93.4936 245° Southwest 270 311 8,800  Level Minneapolis Center
Thu 10:43:00 AM 44.5912 -93.8176 235° Southwest  Level FlightAware Approximate
Thu 10:43:14 AM 44.7842 -93.5775 228° Southwest 290 334 10,700  Level Minneapolis Center
Thu 10:44:00 AM 44.5206 -93.9268 230° Southwest  Level FlightAware Approximate
Thu 10:44:16 AM 44.7244 -93.6744 229° Southwest 331 381 12,400  Level Minneapolis Center
Thu 10:45:18 AM 44.6844 -93.7939 245° Southwest 339 390 14,400 1,935 Climbing Minneapolis Center
Thu 10:46:20 AM 44.6436 -93.9153 245° Southwest 345 397 16,400 1,839 Climbing Minneapolis Center
Thu 10:47:22 AM 44.5958 -94.0619 245° Southwest 346 398 18,200 1,645 Climbing Minneapolis Center
Thu 10:48:24 AM 44.5536 -94.1894 245° Southwest 356 410 19,800 1,258 Climbing Minneapolis Center
Thu 10:49:26 AM 44.5119 -94.3186 246° West 363 418 20,800 1,056 Climbing Minneapolis Center
Thu 10:50:29 AM 44.4675 -94.4492 245° Southwest 370 426 22,000 576 Climbing Minneapolis Center
Thu 10:51:31 AM 44.4222 -94.5817 244° Southwest 376 433 22,000  Level Minneapolis Center
Thu 10:52:33 AM 44.3708 -94.7364 245° Southwest 389 448 22,000  Level Minneapolis Center
Thu 10:53:35 AM 44.3228 -94.8775 245° Southwest 400 460 22,000  Level Minneapolis Center
Thu 10:54:37 AM 44.2758 -95.0158 245° Southwest 396 456 22,000  Level Minneapolis Center
Thu 10:55:39 AM 44.2289 -95.1525 244° Southwest 392 451 22,000 -355 Level Minneapolis Center
Thu 10:57:00 AM 44.1487 -95.2623 225° Southwest  Level FlightAware Approximate
Thu 10:57:43 AM 44.1261 -95.4486 225° Southwest 385 443 20,900  Level Minneapolis Center
Thu 10:58:45 AM 44.0800 -95.5822 244° Southwest 384 442 18,800 -1,984 Descending Minneapolis Center
Thu 10:59:47 AM 44.0350 -95.7111 244° Southwest 372 428 16,800 -1,887 Descending Minneapolis Center
Thu 11:00:49 AM 43.9906 -95.8356 244° Southwest 360 414 14,900 -1,887 Descending Minneapolis Center
Thu 11:01:51 AM 43.9478 -95.9583 244° Southwest 354 407 12,900 -1,935 Descending Minneapolis Center
Thu 11:02:53 AM 43.9039 -96.0794 243° Southwest 350 403 10,900 -1,694 Descending Minneapolis Center
Thu 11:03:55 AM 43.8581 -96.2061 243° Southwest 310 357 9,400 -1,403 Descending Minneapolis Center
Thu 11:04:57 AM 43.8247 -96.3014 244° Southwest 286 329 8,000 -1,296 Descending Minneapolis Center
Thu 11:06:00 AM 43.7922 -96.3925 244° Southwest 275 316 6,700 -1,344 Descending Minneapolis Center
Thu 11:07:02 AM 43.7594 -96.4814 243° Southwest 267 307 5,200 -1,210 Descending Minneapolis Center
Thu 11:08:04 AM 43.7289 -96.5656 243° Southwest 258 297 4,200 -968 Descending Minneapolis Center

Login

Don't have an account? Register now (free) for customized features, flight alerts, and more!